sensor_id;sensor_type;location;lat;lon;timestamp;temperature;humidity
48728;DHT22;34527;45.618;5.130;2022-09-03T00:02:06;19.30;99.90
48728;DHT22;34527;45.618;5.130;2022-09-03T00:04:41;19.30;99.90
48728;DHT22;34527;45.618;5.130;2022-09-03T00:07:22;19.40;99.90
48728;DHT22;34527;45.618;5.130;2022-09-03T00:09:57;19.40;99.90
48728;DHT22;34527;45.618;5.130;2022-09-03T00:12:35;19.40;99.90
48728;DHT22;34527;45.618;5.130;2022-09-03T00:15:13;19.40;99.90
48728;DHT22;34527;45.618;5.130;2022-09-03T00:17:51;19.40;99.90
48728;DHT22;34527;45.618;5.130;2022-09-03T00:22:58;19.40;99.90
48728;DHT22;34527;45.618;5.130;2022-09-03T00:25:44;19.30;99.90
48728;DHT22;34527;45.618;5.130;2022-09-03T00:31:13;19.30;99.90
48728;DHT22;34527;45.618;5.130;2022-09-03T00:33:44;19.10;99.90
48728;DHT22;34527;45.618;5.130;2022-09-03T00:36:34;19.10;99.90
48728;DHT22;34527;45.618;5.130;2022-09-03T00:39:00;19.10;99.90
48728;DHT22;34527;45.618;5.130;2022-09-03T01:01:58;18.80;99.90
48728;DHT22;34527;45.618;5.130;2022-09-03T01:07:21;18.70;99.90
48728;DHT22;34527;45.618;5.130;2022-09-03T01:18:56;18.70;99.90
48728;DHT22;34527;45.618;5.130;2022-09-03T01:29:01;18.60;99.90
48728;DHT22;34527;45.618;5.130;2022-09-03T01:32:48;18.60;99.90
48728;DHT22;34527;45.618;5.130;2022-09-03T01:40:32;18.60;99.90
48728;DHT22;34527;45.618;5.130;2022-09-03T01:43:16;18.70;99.90
48728;DHT22;34527;45.618;5.130;2022-09-03T01:45:53;18.70;99.90
48728;DHT22;34527;45.618;5.130;2022-09-03T01:48:33;18.70;99.90
48728;DHT22;34527;45.618;5.130;2022-09-03T01:51:20;18.60;99.90
48728;DHT22;34527;45.618;5.130;2022-09-03T01:59:26;18.60;99.90
48728;DHT22;34527;45.618;5.130;2022-09-03T02:02:20;18.60;99.90
48728;DHT22;34527;45.618;5.130;2022-09-03T02:05:03;18.60;99.90
48728;DHT22;34527;45.618;5.130;2022-09-03T02:07:36;18.40;99.90
48728;DHT22;34527;45.618;5.130;2022-09-03T02:10:10;18.30;99.90
48728;DHT22;34527;45.618;5.130;2022-09-03T02:12:38;18.30;99.90
48728;DHT22;34527;45.618;5.130;2022-09-03T02:15:12;18.30;99.90
48728;DHT22;34527;45.618;5.130;2022-09-03T02:17:40;18.30;99.90
48728;DHT22;34527;45.618;5.130;2022-09-03T02:20:09;18.20;99.90
48728;DHT22;34527;45.618;5.130;2022-09-03T02:22:37;18.20;99.90
48728;DHT22;34527;45.618;5.130;2022-09-03T02:25:05;18.20;99.90
48728;DHT22;34527;45.618;5.130;2022-09-03T02:27:31;18.30;99.90
48728;DHT22;34527;45.618;5.130;2022-09-03T02:29:58;18.20;99.90
48728;DHT22;34527;45.618;5.130;2022-09-03T02:32:24;18.20;99.90
48728;DHT22;34527;45.618;5.130;2022-09-03T02:34:51;18.20;99.90
48728;DHT22;34527;45.618;5.130;2022-09-03T02:37:17;18.30;99.90
48728;DHT22;34527;45.618;5.130;2022-09-03T02:39:44;18.20;99.90
48728;DHT22;34527;45.618;5.130;2022-09-03T02:42:11;18.30;99.90
48728;DHT22;34527;45.618;5.130;2022-09-03T02:44:45;18.30;99.90
48728;DHT22;34527;45.618;5.130;2022-09-03T02:47:12;18.30;99.90
48728;DHT22;34527;45.618;5.130;2022-09-03T02:49:39;18.20;99.90
48728;DHT22;34527;45.618;5.130;2022-09-03T02:52:08;18.20;99.90
48728;DHT22;34527;45.618;5.130;2022-09-03T02:54:37;18.10;99.90
48728;DHT22;34527;45.618;5.130;2022-09-03T02:57:08;18.10;99.90
48728;DHT22;34527;45.618;5.130;2022-09-03T02:59:34;18.00;99.90
48728;DHT22;34527;45.618;5.130;2022-09-03T03:02:00;17.90;99.90
48728;DHT22;34527;45.618;5.130;2022-09-03T03:04:26;17.90;99.90
48728;DHT22;34527;45.618;5.130;2022-09-03T03:06:52;18.10;99.90
48728;DHT22;34527;45.618;5.130;2022-09-03T03:09:18;18.10;99.90
48728;DHT22;34527;45.618;5.130;2022-09-03T03:11:44;18.10;99.90
48728;DHT22;34527;45.618;5.130;2022-09-03T03:14:10;18.20;99.90
48728;DHT22;34527;45.618;5.130;2022-09-03T03:16:36;18.10;99.90
48728;DHT22;34527;45.618;5.130;2022-09-03T03:19:02;18.00;99.90
48728;DHT22;34527;45.618;5.130;2022-09-03T03:21:27;18.10;99.90
48728;DHT22;34527;45.618;5.130;2022-09-03T03:23:54;18.10;99.90
48728;DHT22;34527;45.618;5.130;2022-09-03T03:26:20;18.10;99.90
48728;DHT22;34527;45.618;5.130;2022-09-03T03:28:50;18.20;99.90
48728;DHT22;34527;45.618;5.130;2022-09-03T03:31:21;18.10;99.90
48728;DHT22;34527;45.618;5.130;2022-09-03T03:33:56;18.20;99.90
48728;DHT22;34527;45.618;5.130;2022-09-03T03:36:23;18.30;99.90
48728;DHT22;34527;45.618;5.130;2022-09-03T03:38:53;18.40;99.90
48728;DHT22;34527;45.618;5.130;2022-09-03T03:41:22;18.40;99.90
48728;DHT22;34527;45.618;5.130;2022-09-03T03:43:53;18.40;99.90
48728;DHT22;34527;45.618;5.130;2022-09-03T03:46:22;18.40;99.90
48728;DHT22;34527;45.618;5.130;2022-09-03T03:48:50;18.40;99.90
48728;DHT22;34527;45.618;5.130;2022-09-03T03:51:16;18.50;99.90
48728;DHT22;34527;45.618;5.130;2022-09-03T03:53:42;18.50;99.90
48728;DHT22;34527;45.618;5.130;2022-09-03T03:56:11;18.50;99.90
48728;DHT22;34527;45.618;5.130;2022-09-03T03:58:38;18.50;99.90
48728;DHT22;34527;45.618;5.130;2022-09-03T04:01:12;18.50;99.90
48728;DHT22;34527;45.618;5.130;2022-09-03T04:03:39;18.40;99.90
48728;DHT22;34527;45.618;5.130;2022-09-03T04:06:07;18.40;99.90
48728;DHT22;34527;45.618;5.130;2022-09-03T04:08:38;18.30;99.90
48728;DHT22;34527;45.618;5.130;2022-09-03T04:11:06;18.40;99.90
48728;DHT22;34527;45.618;5.130;2022-09-03T04:13:38;18.50;99.90
48728;DHT22;34527;45.618;5.130;2022-09-03T04:18:32;18.40;99.90
48728;DHT22;34527;45.618;5.130;2022-09-03T04:21:11;18.50;99.90
48728;DHT22;34527;45.618;5.130;2022-09-03T04:23:43;18.40;99.90
48728;DHT22;34527;45.618;5.130;2022-09-03T04:26:12;18.40;99.90
48728;DHT22;34527;45.618;5.130;2022-09-03T04:28:38;18.40;99.90
48728;DHT22;34527;45.618;5.130;2022-09-03T04:31:08;18.40;99.90
48728;DHT22;34527;45.618;5.130;2022-09-03T04:33:35;18.40;99.90
48728;DHT22;34527;45.618;5.130;2022-09-03T04:38:39;18.40;99.90
48728;DHT22;34527;45.618;5.130;2022-09-03T04:41:07;18.40;99.90
48728;DHT22;34527;45.618;5.130;2022-09-03T04:43:33;18.40;99.90
48728;DHT22;34527;45.618;5.130;2022-09-03T04:46:01;18.40;99.90
48728;DHT22;34527;45.618;5.130;2022-09-03T04:48:29;18.40;99.90
48728;DHT22;34527;45.618;5.130;2022-09-03T04:51:02;18.50;99.90
48728;DHT22;34527;45.618;5.130;2022-09-03T04:53:35;18.40;99.90
48728;DHT22;34527;45.618;5.130;2022-09-03T04:56:01;18.40;99.90
48728;DHT22;34527;45.618;5.130;2022-09-03T04:58:27;18.40;99.90
48728;DHT22;34527;45.618;5.130;2022-09-03T05:00:53;18.40;99.90
48728;DHT22;34527;45.618;5.130;2022-09-03T05:03:19;18.40;99.90
48728;DHT22;34527;45.618;5.130;2022-09-03T05:05:56;18.40;99.90
48728;DHT22;34527;45.618;5.130;2022-09-03T05:08:22;18.30;99.90
48728;DHT22;34527;45.618;5.130;2022-09-03T05:10:48;18.40;99.90
48728;DHT22;34527;45.618;5.130;2022-09-03T05:13:14;18.40;99.90
48728;DHT22;34527;45.618;5.130;2022-09-03T05:15:40;18.40;99.90
48728;DHT22;34527;45.618;5.130;2022-09-03T05:18:10;18.40;99.90
48728;DHT22;34527;45.618;5.130;2022-09-03T05:20:36;18.50;99.90
48728;DHT22;34527;45.618;5.130;2022-09-03T05:23:03;18.60;99.90
48728;DHT22;34527;45.618;5.130;2022-09-03T05:25:29;18.60;99.90
48728;DHT22;34527;45.618;5.130;2022-09-03T05:27:59;18.70;99.90
48728;DHT22;34527;45.618;5.130;2022-09-03T05:30:26;18.80;99.90
48728;DHT22;34527;45.618;5.130;2022-09-03T05:32:52;18.80;99.90
48728;DHT22;34527;45.618;5.130;2022-09-03T05:35:18;18.80;99.90
48728;DHT22;34527;45.618;5.130;2022-09-03T05:37:44;18.80;99.90
48728;DHT22;34527;45.618;5.130;2022-09-03T05:40:10;18.80;99.90
48728;DHT22;34527;45.618;5.130;2022-09-03T05:42:37;18.90;99.90
48728;DHT22;34527;45.618;5.130;2022-09-03T05:45:07;18.90;99.90
48728;DHT22;34527;45.618;5.130;2022-09-03T05:47:38;18.80;99.90
48728;DHT22;34527;45.618;5.130;2022-09-03T05:50:08;18.90;99.90
48728;DHT22;34527;45.618;5.130;2022-09-03T05:52:36;18.80;99.90
48728;DHT22;34527;45.618;5.130;2022-09-03T05:55:03;18.90;99.90
48728;DHT22;34527;45.618;5.130;2022-09-03T05:57:29;18.90;99.90
48728;DHT22;34527;45.618;5.130;2022-09-03T05:59:56;18.90;99.90
48728;DHT22;34527;45.618;5.130;2022-09-03T06:02:21;18.90;99.90
48728;DHT22;34527;45.618;5.130;2022-09-03T06:04:48;18.90;99.90
48728;DHT22;34527;45.618;5.130;2022-09-03T06:07:13;18.90;99.90
48728;DHT22;34527;45.618;5.130;2022-09-03T06:09:39;18.90;99.90
48728;DHT22;34527;45.618;5.130;2022-09-03T06:12:06;19.00;99.90
48728;DHT22;34527;45.618;5.130;2022-09-03T06:14:32;19.00;99.90
48728;DHT22;34527;45.618;5.130;2022-09-03T06:16:58;19.00;99.90
48728;DHT22;34527;45.618;5.130;2022-09-03T06:19:24;19.00;99.90
48728;DHT22;34527;45.618;5.130;2022-09-03T06:21:50;19.10;99.90
48728;DHT22;34527;45.618;5.130;2022-09-03T06:24:18;19.20;99.90
48728;DHT22;34527;45.618;5.130;2022-09-03T06:26:44;19.20;99.90
48728;DHT22;34527;45.618;5.130;2022-09-03T06:29:11;19.20;99.90
48728;DHT22;34527;45.618;5.130;2022-09-03T06:31:38;19.20;99.90
48728;DHT22;34527;45.618;5.130;2022-09-03T06:34:04;19.30;99.90
48728;DHT22;34527;45.618;5.130;2022-09-03T06:36:31;19.40;99.90
48728;DHT22;34527;45.618;5.130;2022-09-03T06:38:57;19.50;99.90
48728;DHT22;34527;45.618;5.130;2022-09-03T06:41:28;19.60;99.90
48728;DHT22;34527;45.618;5.130;2022-09-03T06:43:59;19.70;99.90
48728;DHT22;34527;45.618;5.130;2022-09-03T06:46:30;19.80;99.90
48728;DHT22;34527;45.618;5.130;2022-09-03T06:48:56;19.90;99.90
48728;DHT22;34527;45.618;5.130;2022-09-03T06:51:24;20.00;99.90
48728;DHT22;34527;45.618;5.130;2022-09-03T06:53:59;19.90;99.90
48728;DHT22;34527;45.618;5.130;2022-09-03T06:56:25;20.00;99.90
48728;DHT22;34527;45.618;5.130;2022-09-03T06:58:53;20.10;99.90
48728;DHT22;34527;45.618;5.130;2022-09-03T07:01:22;20.20;99.90
48728;DHT22;34527;45.618;5.130;2022-09-03T07:04:00;20.10;99.90
48728;DHT22;34527;45.618;5.130;2022-09-03T07:06:29;20.00;99.90
48728;DHT22;34527;45.618;5.130;2022-09-03T07:08:55;20.10;99.90
48728;DHT22;34527;45.618;5.130;2022-09-03T07:11:26;20.20;99.90
48728;DHT22;34527;45.618;5.130;2022-09-03T07:13:53;20.20;99.90
48728;DHT22;34527;45.618;5.130;2022-09-03T07:16:23;20.30;99.90
48728;DHT22;34527;45.618;5.130;2022-09-03T07:18:50;20.30;99.90
48728;DHT22;34527;45.618;5.130;2022-09-03T07:21:18;20.50;99.90
48728;DHT22;34527;45.618;5.130;2022-09-03T07:23:45;20.60;99.90
48728;DHT22;34527;45.618;5.130;2022-09-03T07:26:17;20.80;99.90
48728;DHT22;34527;45.618;5.130;2022-09-03T07:28:44;20.80;99.90
48728;DHT22;34527;45.618;5.130;2022-09-03T07:31:19;20.90;99.90
48728;DHT22;34527;45.618;5.130;2022-09-03T07:33:54;21.00;99.90
48728;DHT22;34527;45.618;5.130;2022-09-03T07:36:21;21.30;99.90
48728;DHT22;34527;45.618;5.130;2022-09-03T07:38:48;21.50;99.90
48728;DHT22;34527;45.618;5.130;2022-09-03T07:41:14;21.60;99.90
48728;DHT22;34527;45.618;5.130;2022-09-03T07:43:44;21.80;99.90
48728;DHT22;34527;45.618;5.130;2022-09-03T07:46:18;21.90;99.90
48728;DHT22;34527;45.618;5.130;2022-09-03T07:48:56;21.90;99.90
48728;DHT22;34527;45.618;5.130;2022-09-03T07:51:27;22.10;99.90
48728;DHT22;34527;45.618;5.130;2022-09-03T07:53:55;22.20;99.90
48728;DHT22;34527;45.618;5.130;2022-09-03T07:56:23;22.10;99.90
48728;DHT22;34527;45.618;5.130;2022-09-03T07:58:49;22.10;99.90
48728;DHT22;34527;45.618;5.130;2022-09-03T08:01:20;22.20;99.90
48728;DHT22;34527;45.618;5.130;2022-09-03T08:03:48;22.30;99.90
48728;DHT22;34527;45.618;5.130;2022-09-03T08:06:15;22.20;99.90
48728;DHT22;34527;45.618;5.130;2022-09-03T08:08:41;22.20;99.90
48728;DHT22;34527;45.618;5.130;2022-09-03T08:11:13;22.30;99.90
48728;DHT22;34527;45.618;5.130;2022-09-03T08:13:41;22.40;99.90
48728;DHT22;34527;45.618;5.130;2022-09-03T08:16:08;22.60;99.90
48728;DHT22;34527;45.618;5.130;2022-09-03T08:18:35;22.70;99.90
48728;DHT22;34527;45.618;5.130;2022-09-03T08:21:14;22.80;99.90
48728;DHT22;34527;45.618;5.130;2022-09-03T08:23:42;23.00;99.90
48728;DHT22;34527;45.618;5.130;2022-09-03T08:26:09;23.10;99.90
48728;DHT22;34527;45.618;5.130;2022-09-03T08:28:36;23.20;99.90
48728;DHT22;34527;45.618;5.130;2022-09-03T08:31:13;23.20;99.90
48728;DHT22;34527;45.618;5.130;2022-09-03T08:33:41;23.10;99.90
48728;DHT22;34527;45.618;5.130;2022-09-03T08:36:19;23.10;99.90
48728;DHT22;34527;45.618;5.130;2022-09-03T08:38:48;23.30;99.90
48728;DHT22;34527;45.618;5.130;2022-09-03T08:41:17;23.20;99.90
48728;DHT22;34527;45.618;5.130;2022-09-03T08:44:03;23.20;99.90
48728;DHT22;34527;45.618;5.130;2022-09-03T08:54:46;23.60;99.90
48728;DHT22;34527;45.618;5.130;2022-09-03T08:57:13;23.60;99.90
48728;DHT22;34527;45.618;5.130;2022-09-03T08:59:39;23.60;99.90
48728;DHT22;34527;45.618;5.130;2022-09-03T09:07:34;23.40;99.90
48728;DHT22;34527;45.618;5.130;2022-09-03T09:21:26;23.90;99.90
48728;DHT22;34527;45.618;5.130;2022-09-03T09:23:59;23.90;99.90
48728;DHT22;34527;45.618;5.130;2022-09-03T09:26:28;23.80;99.90
48728;DHT22;34527;45.618;5.130;2022-09-03T09:28:59;23.80;99.90
48728;DHT22;34527;45.618;5.130;2022-09-03T09:31:26;24.00;99.90
48728;DHT22;34527;45.618;5.130;2022-09-03T09:34:05;24.40;99.90
48728;DHT22;34527;45.618;5.130;2022-09-03T09:36:45;24.50;99.90
48728;DHT22;34527;45.618;5.130;2022-09-03T09:39:13;24.60;99.90
48728;DHT22;34527;45.618;5.130;2022-09-03T09:41:42;24.80;99.90
48728;DHT22;34527;45.618;5.130;2022-09-03T09:44:19;24.90;99.90
48728;DHT22;34527;45.618;5.130;2022-09-03T09:46:46;24.90;99.90
48728;DHT22;34527;45.618;5.130;2022-09-03T09:49:32;24.90;99.90
48728;DHT22;34527;45.618;5.130;2022-09-03T09:52:13;24.90;99.90
48728;DHT22;34527;45.618;5.130;2022-09-03T09:54:42;25.20;99.90
48728;DHT22;34527;45.618;5.130;2022-09-03T09:57:16;25.30;99.90
48728;DHT22;34527;45.618;5.130;2022-09-03T09:59:44;25.20;99.90
48728;DHT22;34527;45.618;5.130;2022-09-03T10:04:45;25.20;99.90
48728;DHT22;34527;45.618;5.130;2022-09-03T10:07:29;25.20;99.90
48728;DHT22;34527;45.618;5.130;2022-09-03T10:10:02;25.30;99.90
48728;DHT22;34527;45.618;5.130;2022-09-03T10:12:48;25.20;99.90
48728;DHT22;34527;45.618;5.130;2022-09-03T10:21:17;24.90;99.90
48728;DHT22;34527;45.618;5.130;2022-09-03T10:26:25;24.90;99.90
48728;DHT22;34527;45.618;5.130;2022-09-03T10:29:03;24.90;99.90
48728;DHT22;34527;45.618;5.130;2022-09-03T10:31:40;25.00;99.90
48728;DHT22;34527;45.618;5.130;2022-09-03T10:34:27;24.90;99.90
48728;DHT22;34527;45.618;5.130;2022-09-03T10:45:18;24.80;99.90
48728;DHT22;34527;45.618;5.130;2022-09-03T10:48:00;24.80;99.90
48728;DHT22;34527;45.618;5.130;2022-09-03T10:56:16;25.00;99.90
48728;DHT22;34527;45.618;5.130;2022-09-03T10:59:06;25.00;99.90
48728;DHT22;34527;45.618;5.130;2022-09-03T11:10:28;25.10;99.90
48728;DHT22;34527;45.618;5.130;2022-09-03T11:15:38;24.90;99.90
48728;DHT22;34527;45.618;5.130;2022-09-03T11:20:51;24.70;99.90
48728;DHT22;34527;45.618;5.130;2022-09-03T11:23:21;24.70;99.90
48728;DHT22;34527;45.618;5.130;2022-09-03T11:25:53;24.60;99.90
48728;DHT22;34527;45.618;5.130;2022-09-03T11:31:32;24.60;99.90
48728;DHT22;34527;45.618;5.130;2022-09-03T11:34:12;24.70;99.90
48728;DHT22;34527;45.618;5.130;2022-09-03T11:36:39;24.60;99.90
48728;DHT22;34527;45.618;5.130;2022-09-03T11:39:21;24.50;99.90
48728;DHT22;34527;45.618;5.130;2022-09-03T11:42:03;24.60;99.90
48728;DHT22;34527;45.618;5.130;2022-09-03T11:44:41;24.70;99.90
48728;DHT22;34527;45.618;5.130;2022-09-03T11:49:45;25.00;99.90
48728;DHT22;34527;45.618;5.130;2022-09-03T11:52:26;25.30;99.90
48728;DHT22;34527;45.618;5.130;2022-09-03T11:54:52;25.40;99.90
48728;DHT22;34527;45.618;5.130;2022-09-03T11:57:41;25.40;99.90
48728;DHT22;34527;45.618;5.130;2022-09-03T12:00:15;25.60;99.90
48728;DHT22;34527;45.618;5.130;2022-09-03T12:02:52;25.50;99.90
48728;DHT22;34527;45.618;5.130;2022-09-03T12:08:39;25.40;99.90
48728;DHT22;34527;45.618;5.130;2022-09-03T12:14:30;25.70;99.90
48728;DHT22;34527;45.618;5.130;2022-09-03T12:17:25;25.80;99.90
48728;DHT22;34527;45.618;5.130;2022-09-03T12:19:56;26.00;99.90
48728;DHT22;34527;45.618;5.130;2022-09-03T12:22:28;26.20;99.90
48728;DHT22;34527;45.618;5.130;2022-09-03T12:24:55;25.90;99.90
48728;DHT22;34527;45.618;5.130;2022-09-03T12:27:32;25.80;99.90
48728;DHT22;34527;45.618;5.130;2022-09-03T12:30:00;25.60;99.90
48728;DHT22;34527;45.618;5.130;2022-09-03T12:32:31;25.70;99.90
48728;DHT22;34527;45.618;5.130;2022-09-03T12:35:22;25.70;99.90
48728;DHT22;34527;45.618;5.130;2022-09-03T12:37:51;25.60;99.90
48728;DHT22;34527;45.618;5.130;2022-09-03T12:40:22;25.70;99.90
48728;DHT22;34527;45.618;5.130;2022-09-03T12:42:49;25.80;99.90
48728;DHT22;34527;45.618;5.130;2022-09-03T12:45:19;25.70;99.90
48728;DHT22;34527;45.618;5.130;2022-09-03T12:47:45;25.50;99.90
48728;DHT22;34527;45.618;5.130;2022-09-03T12:50:17;25.40;99.90
48728;DHT22;34527;45.618;5.130;2022-09-03T12:52:50;25.40;99.90
48728;DHT22;34527;45.618;5.130;2022-09-03T13:01:26;25.70;99.90
48728;DHT22;34527;45.618;5.130;2022-09-03T13:04:08;25.70;99.90
48728;DHT22;34527;45.618;5.130;2022-09-03T13:06:55;25.70;99.90
48728;DHT22;34527;45.618;5.130;2022-09-03T13:09:26;25.50;99.90
48728;DHT22;34527;45.618;5.130;2022-09-03T13:11:55;25.40;99.90
48728;DHT22;34527;45.618;5.130;2022-09-03T13:14:25;25.40;99.90
48728;DHT22;34527;45.618;5.130;2022-09-03T13:22:10;25.30;99.90
48728;DHT22;34527;45.618;5.130;2022-09-03T13:31:18;25.00;99.90
48728;DHT22;34527;45.618;5.130;2022-09-03T13:33:37;24.90;99.90
48728;DHT22;34527;45.618;5.130;2022-09-03T13:39:32;25.10;99.90
48728;DHT22;34527;45.618;5.130;2022-09-03T13:42:10;25.30;99.90
48728;DHT22;34527;45.618;5.130;2022-09-03T13:44:48;25.50;99.90
48728;DHT22;34527;45.618;5.130;2022-09-03T13:47:31;25.70;99.90
48728;DHT22;34527;45.618;5.130;2022-09-03T13:50:19;25.80;99.90
48728;DHT22;34527;45.618;5.130;2022-09-03T13:53:02;26.10;99.90
48728;DHT22;34527;45.618;5.130;2022-09-03T13:55:47;26.10;99.90
48728;DHT22;34527;45.618;5.130;2022-09-03T13:58:22;26.20;99.90
48728;DHT22;34527;45.618;5.130;2022-09-03T14:03:59;26.50;99.90
48728;DHT22;34527;45.618;5.130;2022-09-03T14:10:03;26.10;99.90
48728;DHT22;34527;45.618;5.130;2022-09-03T14:14:55;25.90;99.90
48728;DHT22;34527;45.618;5.130;2022-09-03T14:20:03;25.60;99.90
48728;DHT22;34527;45.618;5.130;2022-09-03T14:22:50;25.40;99.90
48728;DHT22;34527;45.618;5.130;2022-09-03T14:25:23;25.20;99.90
48728;DHT22;34527;45.618;5.130;2022-09-03T14:27:50;25.10;99.90
48728;DHT22;34527;45.618;5.130;2022-09-03T14:30:25;25.00;99.90
48728;DHT22;34527;45.618;5.130;2022-09-03T14:33:18;25.00;99.90
48728;DHT22;34527;45.618;5.130;2022-09-03T14:38:31;24.80;99.90
48728;DHT22;34527;45.618;5.130;2022-09-03T14:41:18;24.20;99.90
48728;DHT22;34527;45.618;5.130;2022-09-03T14:44:06;23.70;99.90
48728;DHT22;34527;45.618;5.130;2022-09-03T15:01:12;22.90;99.90
48728;DHT22;34527;45.618;5.130;2022-09-03T15:04:12;22.80;99.90
48728;DHT22;34527;45.618;5.130;2022-09-03T15:09:39;22.70;99.90
48728;DHT22;34527;45.618;5.130;2022-09-03T15:14:45;23.00;99.90
48728;DHT22;34527;45.618;5.130;2022-09-03T15:26:20;22.90;99.90
48728;DHT22;34527;45.618;5.130;2022-09-03T15:37:47;23.30;99.90
48728;DHT22;34527;45.618;5.130;2022-09-03T15:42:51;23.30;99.90
48728;DHT22;34527;45.618;5.130;2022-09-03T15:46:34;23.30;99.90
48728;DHT22;34527;45.618;5.130;2022-09-03T15:48:35;23.30;99.90
48728;DHT22;34527;45.618;5.130;2022-09-03T15:51:21;23.20;99.90
48728;DHT22;34527;45.618;5.130;2022-09-03T15:54:17;23.10;99.90
48728;DHT22;34527;45.618;5.130;2022-09-03T16:00:05;23.10;99.90
48728;DHT22;34527;45.618;5.130;2022-09-03T16:05:20;22.90;99.90
48728;DHT22;34527;45.618;5.130;2022-09-03T16:08:23;22.80;99.90
48728;DHT22;34527;45.618;5.130;2022-09-03T16:11:33;22.80;99.90
48728;DHT22;34527;45.618;5.130;2022-09-03T16:14:09;22.70;99.90
48728;DHT22;34527;45.618;5.130;2022-09-03T16:22:27;22.70;99.90
48728;DHT22;34527;45.618;5.130;2022-09-03T16:24:59;22.60;99.90
48728;DHT22;34527;45.618;5.130;2022-09-03T16:30:10;22.60;99.90
48728;DHT22;34527;45.618;5.130;2022-09-03T16:32:55;22.70;99.90
48728;DHT22;34527;45.618;5.130;2022-09-03T16:38:33;22.90;99.90
48728;DHT22;34527;45.618;5.130;2022-09-03T16:46:35;22.80;99.90
48728;DHT22;34527;45.618;5.130;2022-09-03T17:03:02;22.60;99.90
48728;DHT22;34527;45.618;5.130;2022-09-03T17:10:50;22.50;99.90
48728;DHT22;34527;45.618;5.130;2022-09-03T17:13:39;22.40;99.90
48728;DHT22;34527;45.618;5.130;2022-09-03T17:16:10;22.50;99.90
48728;DHT22;34527;45.618;5.130;2022-09-03T17:19:00;22.50;99.90
48728;DHT22;34527;45.618;5.130;2022-09-03T17:21:34;22.50;99.90
48728;DHT22;34527;45.618;5.130;2022-09-03T17:30:09;22.50;99.90
48728;DHT22;34527;45.618;5.130;2022-09-03T17:38:42;22.50;99.90
48728;DHT22;34527;45.618;5.130;2022-09-03T17:44:06;22.50;99.90
48728;DHT22;34527;45.618;5.130;2022-09-03T17:49:30;22.40;99.90
48728;DHT22;34527;45.618;5.130;2022-09-03T17:51:58;22.40;99.90
48728;DHT22;34527;45.618;5.130;2022-09-03T17:54:44;22.20;99.90
48728;DHT22;34527;45.618;5.130;2022-09-03T17:57:38;22.10;99.90
48728;DHT22;34527;45.618;5.130;2022-09-03T18:00:09;22.00;99.90
48728;DHT22;34527;45.618;5.130;2022-09-03T18:02:49;21.90;99.90
48728;DHT22;34527;45.618;5.130;2022-09-03T18:05:20;21.80;99.90
48728;DHT22;34527;45.618;5.130;2022-09-03T18:11:10;21.40;99.90
48728;DHT22;34527;45.618;5.130;2022-09-03T18:16:28;21.00;99.90
48728;DHT22;34527;45.618;5.130;2022-09-03T18:19:02;21.10;99.90
48728;DHT22;34527;45.618;5.130;2022-09-03T18:21:35;21.00;99.90
48728;DHT22;34527;45.618;5.130;2022-09-03T18:24:40;20.80;99.90
48728;DHT22;34527;45.618;5.130;2022-09-03T18:30:22;20.80;99.90
48728;DHT22;34527;45.618;5.130;2022-09-03T18:33:06;20.70;99.90
48728;DHT22;34527;45.618;5.130;2022-09-03T18:35:50;20.60;99.90
48728;DHT22;34527;45.618;5.130;2022-09-03T18:38:36;20.60;99.90
48728;DHT22;34527;45.618;5.130;2022-09-03T18:41:51;20.50;99.90
48728;DHT22;34527;45.618;5.130;2022-09-03T18:44:59;20.40;99.90
48728;DHT22;34527;45.618;5.130;2022-09-03T18:57:00;20.10;99.90
48728;DHT22;34527;45.618;5.130;2022-09-03T19:00:11;19.90;99.90
48728;DHT22;34527;45.618;5.130;2022-09-03T19:03:07;19.90;99.90
48728;DHT22;34527;45.618;5.130;2022-09-03T19:06:12;20.00;99.90
48728;DHT22;34527;45.618;5.130;2022-09-03T19:15:22;19.90;99.90
48728;DHT22;34527;45.618;5.130;2022-09-03T19:24:00;20.00;99.90
48728;DHT22;34527;45.618;5.130;2022-09-03T19:29:39;19.80;99.90
48728;DHT22;34527;45.618;5.130;2022-09-03T19:32:52;19.90;99.90
48728;DHT22;34527;45.618;5.130;2022-09-03T19:35:57;19.90;99.90
48728;DHT22;34527;45.618;5.130;2022-09-03T19:42:26;20.10;99.90
48728;DHT22;34527;45.618;5.130;2022-09-03T19:51:31;20.30;99.90
48728;DHT22;34527;45.618;5.130;2022-09-03T19:54:20;20.30;99.90
48728;DHT22;34527;45.618;5.130;2022-09-03T19:57:05;20.20;99.90
48728;DHT22;34527;45.618;5.130;2022-09-03T19:59:51;20.20;99.90
48728;DHT22;34527;45.618;5.130;2022-09-03T20:02:37;20.20;99.90
48728;DHT22;34527;45.618;5.130;2022-09-03T20:05:22;20.20;99.90
48728;DHT22;34527;45.618;5.130;2022-09-03T20:08:07;20.00;99.90
48728;DHT22;34527;45.618;5.130;2022-09-03T20:10:55;20.00;99.90
48728;DHT22;34527;45.618;5.130;2022-09-03T20:13:21;20.00;99.90
48728;DHT22;34527;45.618;5.130;2022-09-03T20:16:15;19.90;99.90
48728;DHT22;34527;45.618;5.130;2022-09-03T20:21:54;19.80;99.90
48728;DHT22;34527;45.618;5.130;2022-09-03T20:24:44;19.80;99.90
48728;DHT22;34527;45.618;5.130;2022-09-03T20:28:02;19.80;99.90
48728;DHT22;34527;45.618;5.130;2022-09-03T20:30:53;19.80;99.90
48728;DHT22;34527;45.618;5.130;2022-09-03T20:36:15;19.80;99.90
48728;DHT22;34527;45.618;5.130;2022-09-03T20:38:56;19.80;99.90
48728;DHT22;34527;45.618;5.130;2022-09-03T20:46:53;19.80;99.90
48728;DHT22;34527;45.618;5.130;2022-09-03T20:52:31;19.70;99.90
48728;DHT22;34527;45.618;5.130;2022-09-03T20:55:16;19.80;99.90
48728;DHT22;34527;45.618;5.130;2022-09-03T21:00:45;19.80;99.90
48728;DHT22;34527;45.618;5.130;2022-09-03T21:03:29;19.80;99.90
48728;DHT22;34527;45.618;5.130;2022-09-03T21:06:32;19.80;99.90
48728;DHT22;34527;45.618;5.130;2022-09-03T21:09:37;19.80;99.90
48728;DHT22;34527;45.618;5.130;2022-09-03T21:14:34;19.80;99.90
48728;DHT22;34527;45.618;5.130;2022-09-03T21:25:31;19.90;99.90
48728;DHT22;34527;45.618;5.130;2022-09-03T21:28:05;20.00;99.90
48728;DHT22;34527;45.618;5.130;2022-09-03T21:30:35;20.00;99.90
48728;DHT22;34527;45.618;5.130;2022-09-03T21:33:22;19.90;99.90
48728;DHT22;34527;45.618;5.130;2022-09-03T21:35:57;20.10;99.90
48728;DHT22;34527;45.618;5.130;2022-09-03T21:38:31;20.10;99.90
48728;DHT22;34527;45.618;5.130;2022-09-03T21:41:22;20.10;99.90
48728;DHT22;34527;45.618;5.130;2022-09-03T21:44:04;20.20;99.90
48728;DHT22;34527;45.618;5.130;2022-09-03T21:46:41;20.20;99.90
48728;DHT22;34527;45.618;5.130;2022-09-03T21:49:15;20.30;99.90
48728;DHT22;34527;45.618;5.130;2022-09-03T21:52:10;20.30;99.90
48728;DHT22;34527;45.618;5.130;2022-09-03T21:54:38;20.30;99.90
48728;DHT22;34527;45.618;5.130;2022-09-03T21:57:19;20.30;99.90
48728;DHT22;34527;45.618;5.130;2022-09-03T22:00:15;20.30;99.90
48728;DHT22;34527;45.618;5.130;2022-09-03T22:02:45;20.30;99.90